createdAt,value
2023-03-06T00:01:20.684Z,96.85
2023-03-06T00:04:36.377Z,96.99
2023-03-06T00:07:18.641Z,97.56
2023-03-06T00:10:13.983Z,97.44
2023-03-06T00:13:20.282Z,97.33
2023-03-06T00:16:19.439Z,97.81
2023-03-06T00:18:59.544Z,98.18
2023-03-06T00:21:58.548Z,98.16
2023-03-06T00:25:14.027Z,98.20
2023-03-06T00:28:15.668Z,98.28
2023-03-06T00:30:52.494Z,98.22
2023-03-06T00:34:05.191Z,98.25
2023-03-06T00:36:58.394Z,98.26
2023-03-06T00:39:51.906Z,98.20
2023-03-06T00:42:34.627Z,98.53
2023-03-06T00:46:08.888Z,98.38
2023-03-06T00:49:35.925Z,98.56
2023-03-06T00:53:23.388Z,98.49
2023-03-06T00:56:41.982Z,98.58
2023-03-06T00:59:47.288Z,98.87
2023-03-06T01:02:44.888Z,98.47
2023-03-06T01:05:34.234Z,98.77
2023-03-06T01:08:59.806Z,98.49
2023-03-06T01:11:53.001Z,99.07
2023-03-06T01:14:38.984Z,98.64
2023-03-06T01:21:25.197Z,98.96
2023-03-06T01:24:48.904Z,98.94
2023-03-06T01:28:00.096Z,98.93
2023-03-06T01:30:46.951Z,98.90
2023-03-06T01:33:38.778Z,98.90
2023-03-06T01:40:31.876Z,99.36
2023-03-06T01:43:38.003Z,99.31
2023-03-06T01:47:19.477Z,99.41
2023-03-06T01:50:20.733Z,99.40
2023-03-06T01:53:17.040Z,99.62
2023-03-06T01:57:11.496Z,99.70
2023-03-06T01:59:30.692Z,99.38
2023-03-06T02:02:28.320Z,99.66
2023-03-06T02:06:01.858Z,99.80
2023-03-06T02:12:50.867Z,99.93
2023-03-06T02:16:00.438Z,99.98
2023-03-06T02:18:58.037Z,99.97
2023-03-06T02:22:02.473Z,100.00
2023-03-06T02:25:22.265Z,100.00
2023-03-06T02:28:44.043Z,100.00
2023-03-06T02:31:49.235Z,100.00
2023-03-06T02:35:09.768Z,100.00
2023-03-06T02:38:06.954Z,100.00
2023-03-06T02:41:32.116Z,100.00
2023-03-06T02:44:33.852Z,100.00
2023-03-06T02:47:17.191Z,100.00
2023-03-06T02:50:40.940Z,100.00
2023-03-06T02:53:46.522Z,100.00
2023-03-06T02:56:54.800Z,100.00
2023-03-06T03:03:47.397Z,100.00
2023-03-06T03:06:45.583Z,100.00
2023-03-06T03:09:40.433Z,100.00
2023-03-06T03:16:22.413Z,100.00
2023-03-06T03:19:31.295Z,100.00
2023-03-06T03:22:44.178Z,100.00
2023-03-06T03:26:40.703Z,100.00
2023-03-06T03:29:35.957Z,100.00
2023-03-06T03:32:35.769Z,100.00
2023-03-06T03:36:23.897Z,100.00
2023-03-06T03:39:13.967Z,100.00
2023-03-06T03:45:48.395Z,100.00
2023-03-06T03:49:35.418Z,100.00
2023-03-06T03:52:51.591Z,100.00
2023-03-06T03:56:15.444Z,100.00
2023-03-06T03:59:13.579Z,100.00
2023-03-06T04:06:29.900Z,100.00
2023-03-06T04:09:28.008Z,100.00
2023-03-06T04:12:57.888Z,100.00
2023-03-06T04:15:43.097Z,100.00
2023-03-06T04:22:42.662Z,100.00
2023-03-06T04:26:23.151Z,100.00
2023-03-06T04:30:14.842Z,100.00
2023-03-06T04:33:25.063Z,100.00
2023-03-06T04:36:51.848Z,100.00
2023-03-06T04:42:41.214Z,100.00
2023-03-06T04:45:18.610Z,100.00
2023-03-06T04:48:13.324Z,100.00
2023-03-06T04:51:36.761Z,100.00
2023-03-06T04:54:35.938Z,100.00
2023-03-06T05:02:25.801Z,100.00
2023-03-06T05:05:35.977Z,100.00
2023-03-06T05:08:44.455Z,100.00
2023-03-06T05:11:36.280Z,100.00
2023-03-06T05:18:34.191Z,100.00
2023-03-06T05:21:14.274Z,100.00
2023-03-06T05:27:19.216Z,100.00
2023-03-06T05:33:31.815Z,100.00
2023-03-06T05:36:36.643Z,100.00
2023-03-06T05:39:15.589Z,100.00
2023-03-06T05:42:31.132Z,100.00
2023-03-06T05:45:32.691Z,100.00
2023-03-06T05:48:40.157Z,100.00
2023-03-06T05:51:32.151Z,100.00
2023-03-06T05:54:04.299Z,100.00
2023-03-06T05:57:08.092Z,100.00
2023-03-06T06:00:23.917Z,100.00
2023-03-06T06:03:49.013Z,100.00
2023-03-06T06:07:19.238Z,100.00
2023-03-06T06:09:47.062Z,100.00
2023-03-06T06:12:32.022Z,100.00
2023-03-06T06:15:15.303Z,100.00
2023-03-06T06:17:56.600Z,100.00
2023-03-06T06:20:42.626Z,100.00
2023-03-06T06:23:26.173Z,100.00
2023-03-06T06:26:22.423Z,100.00
2023-03-06T06:29:00.104Z,100.00
2023-03-06T06:31:51.231Z,100.00
2023-03-06T06:34:29.122Z,100.00
2023-03-06T06:37:12.922Z,100.00
2023-03-06T06:41:04.695Z,100.00
2023-03-06T06:47:26.097Z,100.00
2023-03-06T06:49:56.495Z,100.00
2023-03-06T06:52:25.056Z,100.00
2023-03-06T06:55:17.379Z,100.00
2023-03-06T06:57:59.136Z,100.00
2023-03-06T07:00:34.836Z,100.00
2023-03-06T07:03:41.793Z,100.00
2023-03-06T07:06:18.687Z,100.00
2023-03-06T07:08:46.761Z,100.00
2023-03-06T07:11:19.254Z,100.00
2023-03-06T07:13:47.703Z,100.00
2023-03-06T07:16:19.054Z,100.00
2023-03-06T07:18:49.002Z,100.00
2023-03-06T07:21:20.246Z,100.00
2023-03-06T07:23:56.766Z,100.00
2023-03-06T07:26:34.840Z,100.00
2023-03-06T07:29:09.213Z,100.00
2023-03-06T07:31:55.050Z,100.00
2023-03-06T07:34:31.716Z,100.00
2023-03-06T07:37:18.341Z,100.00
2023-03-06T07:40:04.746Z,100.00
2023-03-06T07:42:38.863Z,100.00
2023-03-06T07:45:19.229Z,100.00
2023-03-06T07:47:53.668Z,100.00
2023-03-06T07:50:24.328Z,100.00
2023-03-06T07:53:02.659Z,100.00
2023-03-06T07:55:38.567Z,100.00
2023-03-06T07:58:45.935Z,100.00
2023-03-06T08:01:23.775Z,100.00
2023-03-06T08:03:58.410Z,100.00
2023-03-06T08:06:39.775Z,100.00
2023-03-06T08:09:20.198Z,100.00
2023-03-06T08:11:57.976Z,100.00
2023-03-06T08:14:51.141Z,100.00
2023-03-06T08:17:38.705Z,100.00
2023-03-06T08:20:24.296Z,100.00
2023-03-06T08:22:52.423Z,100.00
2023-03-06T08:25:37.039Z,100.00
2023-03-06T08:28:15.897Z,100.00
2023-03-06T08:30:55.412Z,100.00
2023-03-06T08:33:41.246Z,100.00
2023-03-06T08:36:18.347Z,100.00
2023-03-06T08:39:06.760Z,100.00
2023-03-06T08:42:03.222Z,100.00
2023-03-06T08:44:41.391Z,100.00
2023-03-06T08:47:14.656Z,100.00
2023-03-06T08:50:07.863Z,100.00
2023-03-06T08:52:57.966Z,100.00
2023-03-06T08:58:34.456Z,100.00
2023-03-06T09:01:25.174Z,100.00
2023-03-06T09:04:18.383Z,100.00
2023-03-06T09:07:46.942Z,100.00
2023-03-06T09:10:22.669Z,100.00
2023-03-06T09:13:07.550Z,100.00
2023-03-06T09:16:23.593Z,100.00
2023-03-06T09:18:59.943Z,100.00
2023-03-06T09:21:40.958Z,100.00
2023-03-06T09:24:17.256Z,100.00
2023-03-06T09:26:52.157Z,100.00
2023-03-06T09:29:26.276Z,100.00
2023-03-06T09:32:12.119Z,100.00
2023-03-06T09:35:04.087Z,100.00
2023-03-06T09:37:51.753Z,100.00
2023-03-06T09:40:39.608Z,100.00
2023-03-06T09:43:23.619Z,100.00
2023-03-06T09:46:29.263Z,100.00
2023-03-06T09:49:56.598Z,100.00
2023-03-06T09:53:09.239Z,100.00
2023-03-06T09:55:46.059Z,100.00
2023-03-06T09:58:27.300Z,100.00
2023-03-06T10:01:22.208Z,100.00
2023-03-06T10:04:07.113Z,100.00
2023-03-06T10:06:54.719Z,100.00
2023-03-06T10:10:09.900Z,100.00
2023-03-06T10:13:06.808Z,100.00
2023-03-06T10:15:46.488Z,100.00
2023-03-06T10:18:24.523Z,100.00
2023-03-06T10:21:18.627Z,100.00
2023-03-06T10:24:05.505Z,100.00
2023-03-06T10:27:13.951Z,100.00
2023-03-06T10:30:03.994Z,100.00
2023-03-06T10:33:07.623Z,100.00
2023-03-06T10:36:48.057Z,99.77
2023-03-06T10:39:36.947Z,99.64
2023-03-06T10:42:21.536Z,99.57
2023-03-06T10:45:23.994Z,99.25
2023-03-06T10:48:54.209Z,99.04
2023-03-06T10:51:36.729Z,98.81
2023-03-06T10:54:17.793Z,98.89
2023-03-06T10:56:55.750Z,98.44
2023-03-06T10:59:57.395Z,98.48
2023-03-06T11:02:43.766Z,98.79
2023-03-06T11:05:25.003Z,98.68
2023-03-06T11:08:01.692Z,98.87
2023-03-06T11:10:36.991Z,99.10
2023-03-06T11:13:28.958Z,99.07
2023-03-06T11:16:19.770Z,99.28
2023-03-06T11:19:19.006Z,99.13
2023-03-06T11:22:27.877Z,98.69
2023-03-06T11:25:49.978Z,98.58
2023-03-06T11:29:16.063Z,98.74
2023-03-06T11:31:59.299Z,98.71
2023-03-06T11:34:50.954Z,98.78
2023-03-06T11:38:44.508Z,98.93
2023-03-06T11:42:05.295Z,99.12
2023-03-06T11:45:21.781Z,99.05
2023-03-06T11:48:17.884Z,99.12
2023-03-06T11:51:15.282Z,99.47
2023-03-06T11:54:35.087Z,99.53
2023-03-06T11:57:29.075Z,99.71
2023-03-06T12:00:31.014Z,99.94
2023-03-06T12:03:33.719Z,100.00
2023-03-06T12:06:13.596Z,100.00
2023-03-06T12:09:46.648Z,100.00
2023-03-06T12:12:44.664Z,100.00
2023-03-06T12:15:52.337Z,100.00
2023-03-06T12:18:56.478Z,100.00
2023-03-06T12:22:17.071Z,100.00
2023-03-06T12:25:26.016Z,100.00
2023-03-06T12:28:23.966Z,100.00
2023-03-06T12:31:30.291Z,100.00
2023-03-06T12:34:41.481Z,100.00
2023-03-06T12:37:33.204Z,100.00
2023-03-06T12:40:57.157Z,100.00
2023-03-06T12:44:03.849Z,100.00
2023-03-06T12:47:01.360Z,100.00
2023-03-06T12:49:38.323Z,100.00
2023-03-06T12:52:18.747Z,100.00
2023-03-06T12:55:01.389Z,100.00
2023-03-06T12:57:48.186Z,100.00
2023-03-06T13:01:50.883Z,100.00
2023-03-06T13:05:33.800Z,100.00
2023-03-06T13:08:36.936Z,100.00
2023-03-06T13:11:35.649Z,100.00
2023-03-06T13:17:47.154Z,100.00
2023-03-06T13:20:54.989Z,100.00
2023-03-06T13:23:53.366Z,100.00
2023-03-06T13:26:50.236Z,100.00
2023-03-06T13:29:38.051Z,100.00
2023-03-06T13:32:37.104Z,100.00
2023-03-06T13:35:47.353Z,100.00
2023-03-06T13:38:36.819Z,100.00
2023-03-06T13:42:01.800Z,100.00
2023-03-06T13:44:46.228Z,100.00
2023-03-06T13:50:48.877Z,100.00
2023-03-06T13:54:15.742Z,100.00
2023-03-06T13:56:59.398Z,100.00
2023-03-06T14:00:09.258Z,100.00
2023-03-06T14:03:11.039Z,100.00
2023-03-06T14:06:12.527Z,100.00
2023-03-06T14:09:40.989Z,100.00
2023-03-06T14:12:24.089Z,100.00
2023-03-06T14:15:26.368Z,100.00
2023-03-06T14:18:46.197Z,100.00
2023-03-06T14:21:55.984Z,100.00
2023-03-06T14:24:47.249Z,100.00
2023-03-06T14:27:44.591Z,100.00
2023-03-06T14:30:23.673Z,100.00
2023-03-06T14:35:59.868Z,100.00
2023-03-06T14:38:36.398Z,100.00
2023-03-06T14:45:22.149Z,100.00
2023-03-06T14:48:16.730Z,100.00
2023-03-06T14:50:57.256Z,100.00
2023-03-06T14:53:34.818Z,100.00
2023-03-06T14:56:28.852Z,100.00
2023-03-06T14:59:18.846Z,100.00
2023-03-06T15:02:42.566Z,100.00
2023-03-06T15:05:46.507Z,100.00
2023-03-06T15:08:30.599Z,100.00
2023-03-06T15:11:17.837Z,100.00
2023-03-06T15:14:23.791Z,100.00
2023-03-06T15:17:35.243Z,100.00
2023-03-06T15:20:07.674Z,100.00
2023-03-06T15:22:46.924Z,100.00
2023-03-06T15:25:40.097Z,100.00
2023-03-06T15:28:47.588Z,100.00
2023-03-06T15:33:10.532Z,100.00
2023-03-06T15:36:21.125Z,100.00
2023-03-06T15:39:09.610Z,100.00
2023-03-06T15:42:05.764Z,100.00
2023-03-06T15:45:42.893Z,100.00
2023-03-06T15:49:54.740Z,100.00
2023-03-06T15:52:42.208Z,100.00
2023-03-06T15:56:26.816Z,100.00
2023-03-06T15:59:11.512Z,100.00
2023-03-06T16:02:14.378Z,100.00
2023-03-06T16:05:18.095Z,100.00
2023-03-06T16:07:55.445Z,100.00
2023-03-06T16:10:51.308Z,100.00
2023-03-06T16:13:36.881Z,100.00
2023-03-06T16:16:21.918Z,100.00
2023-03-06T16:19:28.188Z,100.00
2023-03-06T16:22:03.175Z,100.00
2023-03-06T16:24:34.264Z,100.00
2023-03-06T16:27:21.859Z,100.00
2023-03-06T16:29:59.076Z,100.00
2023-03-06T16:32:32.726Z,100.00
2023-03-06T16:35:09.048Z,100.00
2023-03-06T16:37:45.940Z,100.00
2023-03-06T16:40:44.280Z,100.00
2023-03-06T16:43:27.504Z,100.00
2023-03-06T16:45:56.266Z,100.00
2023-03-06T16:48:26.972Z,100.00
2023-03-06T16:51:11.590Z,100.00
2023-03-06T16:53:44.111Z,100.00
2023-03-06T16:56:20.813Z,100.00
2023-03-06T16:59:12.420Z,100.00
2023-03-06T17:01:51.152Z,100.00
2023-03-06T17:04:21.699Z,100.00
2023-03-06T17:06:54.858Z,100.00
2023-03-06T17:09:32.640Z,100.00
2023-03-06T17:12:00.023Z,100.00
2023-03-06T17:14:46.778Z,100.00
2023-03-06T17:17:18.734Z,100.00
2023-03-06T17:19:48.947Z,100.00
2023-03-06T17:22:18.153Z,100.00
2023-03-06T17:24:52.837Z,100.00
2023-03-06T17:27:24.912Z,100.00
2023-03-06T17:30:02.994Z,100.00
2023-03-06T17:33:09.942Z,100.00
2023-03-06T17:36:07.513Z,100.00
2023-03-06T17:40:12.654Z,100.00
2023-03-06T17:42:31.513Z,100.00
2023-03-06T17:45:12.061Z,100.00
2023-03-06T17:48:00.782Z,100.00
2023-03-06T17:50:33.822Z,100.00
2023-03-06T17:53:01.024Z,100.00
2023-03-06T17:55:29.848Z,100.00
2023-03-06T17:57:57.168Z,100.00
2023-03-06T18:00:27.047Z,100.00
2023-03-06T18:02:57.108Z,100.00
2023-03-06T18:05:25.736Z,100.00
2023-03-06T18:08:02.237Z,100.00
2023-03-06T18:10:32.883Z,100.00
2023-03-06T18:13:14.759Z,100.00
2023-03-06T18:15:42.866Z,100.00
2023-03-06T18:18:10.236Z,100.00
2023-03-06T18:20:49.745Z,100.00
2023-03-06T18:23:20.292Z,100.00
2023-03-06T18:25:47.546Z,100.00
2023-03-06T18:28:26.529Z,100.00
2023-03-06T18:31:08.269Z,100.00
2023-03-06T18:33:37.781Z,100.00
2023-03-06T18:36:06.966Z,100.00
2023-03-06T18:38:39.388Z,100.00
2023-03-06T18:41:08.074Z,100.00
2023-03-06T18:43:36.746Z,100.00
2023-03-06T18:46:07.442Z,100.00
2023-03-06T18:48:38.936Z,100.00
2023-03-06T18:51:09.040Z,100.00
2023-03-06T18:53:40.100Z,100.00
2023-03-06T18:56:18.510Z,100.00
2023-03-06T18:58:52.419Z,100.00
2023-03-06T19:01:26.742Z,100.00
2023-03-06T19:03:54.106Z,100.00
2023-03-06T19:06:22.014Z,100.00
2023-03-06T19:08:53.352Z,100.00
2023-03-06T19:11:21.114Z,100.00
2023-03-06T19:13:52.575Z,100.00
2023-03-06T19:16:31.379Z,100.00
2023-03-06T19:19:02.575Z,100.00
2023-03-06T19:21:35.498Z,100.00
2023-03-06T19:24:06.398Z,100.00
2023-03-06T19:26:34.513Z,100.00
2023-03-06T19:29:41.913Z,100.00
2023-03-06T19:32:15.603Z,100.00
2023-03-06T19:35:23.451Z,100.00
2023-03-06T19:38:18.900Z,100.00
2023-03-06T19:40:53.710Z,100.00
2023-03-06T19:43:57.195Z,100.00
2023-03-06T19:46:37.613Z,100.00
2023-03-06T19:49:47.758Z,100.00
2023-03-06T19:55:47.459Z,100.00
2023-03-06T19:58:33.325Z,100.00
2023-03-06T20:01:24.473Z,100.00
2023-03-06T20:04:04.311Z,100.00
2023-03-06T20:06:54.952Z,100.00
2023-03-06T20:09:47.521Z,100.00
2023-03-06T20:17:25.079Z,100.00
2023-03-06T20:28:21.899Z,100.00
2023-03-06T20:31:39.599Z,100.00
2023-03-06T20:34:46.650Z,100.00
2023-03-06T20:37:29.855Z,100.00
2023-03-06T20:40:17.876Z,100.00
2023-03-06T20:42:52.920Z,100.00
2023-03-06T20:46:44.070Z,100.00
2023-03-06T20:49:54.310Z,100.00
2023-03-06T21:04:32.897Z,100.00
2023-03-06T21:07:43.982Z,100.00
2023-03-06T21:11:09.221Z,100.00
2023-03-06T21:18:16.703Z,100.00
2023-03-06T21:21:11.111Z,100.00
2023-03-06T21:25:18.286Z,100.00
2023-03-06T21:28:41.190Z,100.00
2023-03-06T21:35:09.036Z,100.00
2023-03-06T21:38:10.858Z,100.00
2023-03-06T21:40:55.010Z,100.00
2023-03-06T21:44:33.756Z,100.00
2023-03-06T21:47:47.414Z,100.00
2023-03-06T21:50:31.569Z,100.00
2023-03-06T21:53:20.286Z,100.00
2023-03-06T21:55:50.505Z,100.00
2023-03-06T21:58:22.623Z,100.00
2023-03-06T22:00:53.040Z,100.00
2023-03-06T22:03:36.260Z,100.00
2023-03-06T22:06:18.827Z,100.00
2023-03-06T22:08:52.324Z,100.00
2023-03-06T22:11:46.508Z,100.00
2023-03-06T22:14:23.112Z,100.00
2023-03-06T22:17:00.959Z,100.00
2023-03-06T22:19:28.552Z,100.00
2023-03-06T22:22:05.330Z,100.00
2023-03-06T22:25:04.995Z,100.00
2023-03-06T22:27:35.273Z,100.00
2023-03-06T22:30:06.728Z,100.00
2023-03-06T22:32:37.742Z,100.00
2023-03-06T22:35:26.958Z,100.00
2023-03-06T22:37:54.161Z,100.00
2023-03-06T22:40:24.471Z,100.00
2023-03-06T22:42:59.253Z,100.00
2023-03-06T22:45:34.743Z,100.00
2023-03-06T22:48:11.186Z,100.00
2023-03-06T22:51:05.034Z,100.00
2023-03-06T22:53:51.031Z,100.00
2023-03-06T22:56:30.162Z,100.00
2023-03-06T22:59:06.814Z,100.00
2023-03-06T23:01:37.051Z,100.00
2023-03-06T23:04:52.542Z,100.00
2023-03-06T23:13:22.188Z,100.00
2023-03-06T23:17:01.787Z,100.00
2023-03-06T23:20:29.670Z,100.00
2023-03-06T23:23:35.521Z,100.00
2023-03-06T23:27:35.591Z,100.00
2023-03-06T23:31:42.270Z,100.00
2023-03-06T23:39:11.690Z,100.00
2023-03-06T23:42:25.315Z,100.00
2023-03-06T23:46:09.277Z,100.00
2023-03-06T23:49:40.446Z,100.00
2023-03-06T23:52:49.322Z,100.00
2023-03-06T23:56:22.365Z,100.00
